Time,TemperatureF,DewpointF,PressureIn,WindDirection,WindDirectionDegrees,WindSpeedMPH,WindSpeedGustMPH,Humidity,HourlyPrecipIn,Conditions,Clouds,dailyrainin,SoftwareType,DateUTC
2013-06-15 00:02:00,75.0,62.0,29.71,ENE,59,0.0,3.0,64,0.00,,,0.00,,2013-06-15 05:02:00,
2013-06-15 00:12:00,76.0,62.0,29.71,ENE,63,1.0,5.0,62,0.00,,,0.00,,2013-06-15 05:12:00,
2013-06-15 00:22:00,76.0,62.0,29.71,ENE,63,1.0,5.0,62,0.00,,,0.00,,2013-06-15 05:22:00,
2013-06-15 00:34:00,76.0,62.0,29.71,SW,217,2.0,5.0,61,0.00,,,0.00,,2013-06-15 05:34:00,
2013-06-15 00:42:00,76.0,62.0,29.69,NE,36,3.0,6.0,61,0.00,,,0.00,,2013-06-15 05:42:00,
2013-06-15 00:52:00,76.0,62.0,29.69,NE,36,3.0,6.0,61,0.00,,,0.00,,2013-06-15 05:52:00,
2013-06-15 01:02:00,75.0,62.0,29.67,ENE,63,2.0,9.0,63,0.00,,,0.00,,2013-06-15 06:02:00,
2013-06-15 01:12:00,75.0,62.0,29.67,NE,49,5.0,11.0,65,0.00,,,0.00,,2013-06-15 06:12:00,
2013-06-15 01:24:00,75.0,62.0,29.67,NE,49,5.0,11.0,65,0.00,,,0.00,,2013-06-15 06:24:00,
2013-06-15 01:33:00,74.0,63.0,29.66,NE,47,4.0,8.0,68,0.00,,,0.00,,2013-06-15 06:33:00,
2013-06-15 01:43:00,73.0,62.0,29.68,ENE,59,2.0,5.0,69,0.00,,,0.00,,2013-06-15 06:43:00,
2013-06-15 01:53:00,73.0,62.0,29.68,ENE,59,2.0,5.0,69,0.00,,,0.00,,2013-06-15 06:53:00,
2013-06-15 02:01:00,73.0,62.0,29.67,ESE,119,0.0,3.0,69,0.00,,,0.00,,2013-06-15 07:01:00,
2013-06-15 02:11:00,73.0,62.0,29.67,ESE,119,1.0,3.0,69,0.00,,,0.00,,2013-06-15 07:11:00,
2013-06-15 02:23:00,73.0,62.0,29.67,ESE,119,1.0,3.0,69,0.00,,,0.00,,2013-06-15 07:23:00,
2013-06-15 02:33:00,73.0,63.0,29.67,SE,129,0.0,2.0,70,0.00,,,0.00,,2013-06-15 07:33:00,
2013-06-15 02:43:00,72.0,62.0,29.67,SE,128,0.0,3.0,71,0.00,,,0.00,,2013-06-15 07:43:00,
2013-06-15 02:53:00,72.0,62.0,29.67,SE,128,0.0,3.0,71,0.00,,,0.00,,2013-06-15 07:53:00,
2013-06-15 03:02:00,72.0,62.0,29.67,SE,128,0.0,1.0,72,0.00,,,0.00,,2013-06-15 08:02:00,
2013-06-15 03:11:00,72.0,62.0,29.67,SE,142,0.0,3.0,72,0.00,,,0.00,,2013-06-15 08:11:00,
2013-06-15 03:22:00,72.0,62.0,29.67,SE,142,0.0,3.0,72,0.00,,,0.00,,2013-06-15 08:22:00,
2013-06-15 03:33:00,71.0,62.0,29.67,SSE,167,1.0,5.0,72,0.00,,,0.00,,2013-06-15 08:33:00,
2013-06-15 03:42:00,71.0,62.0,29.66,SE,134,0.0,5.0,74,0.00,,,0.00,,2013-06-15 08:42:00,
2013-06-15 03:53:00,71.0,62.0,29.66,SE,134,0.0,5.0,74,0.00,,,0.00,,2013-06-15 08:53:00,
2013-06-15 04:02:00,71.0,62.0,29.66,SE,134,1.0,5.0,73,0.00,,,0.00,,2013-06-15 09:02:00,
2013-06-15 04:12:00,70.0,62.0,29.66,SE,134,0.0,3.0,75,0.00,,,0.00,,2013-06-15 09:12:00,
2013-06-15 04:22:00,70.0,62.0,29.66,SE,134,0.0,3.0,75,0.00,,,0.00,,2013-06-15 09:22:00,
2013-06-15 04:33:00,69.0,61.0,29.66,SE,134,0.0,3.0,77,0.00,,,0.00,,2013-06-15 09:33:00,
2013-06-15 04:43:00,69.0,61.0,29.66,SE,134,0.0,3.0,75,0.00,,,0.00,,2013-06-15 09:43:00,
2013-06-15 04:52:00,69.0,61.0,29.66,SE,134,0.0,3.0,75,0.00,,,0.00,,2013-06-15 09:52:00,
2013-06-15 05:02:00,68.0,62.0,29.67,East,99,1.0,5.0,80,0.00,,,0.00,,2013-06-15 10:02:00,
2013-06-15 05:11:00,67.0,61.0,29.68,East,98,0.0,3.0,82,0.00,,,0.00,,2013-06-15 10:11:00,
2013-06-15 05:23:00,67.0,61.0,29.68,East,98,0.0,3.0,82,0.00,,,0.00,,2013-06-15 10:23:00,
2013-06-15 05:33:00,67.0,61.0,29.70,NNE,19,2.0,5.0,82,0.00,,,0.00,,2013-06-15 10:33:00,
2013-06-15 05:43:00,67.0,62.0,29.71,NE,44,1.0,6.0,83,0.00,,,0.00,,2013-06-15 10:43:00,
2013-06-15 05:53:00,67.0,62.0,29.71,NE,44,1.0,6.0,83,0.00,,,0.00,,2013-06-15 10:53:00,
2013-06-15 06:02:00,68.0,62.0,29.73,North,350,3.0,6.0,81,0.00,,,0.00,,2013-06-15 11:02:00,
2013-06-15 06:11:00,67.0,62.0,29.75,NW,305,2.0,4.0,83,0.00,,,0.00,,2013-06-15 11:11:00,
2013-06-15 06:22:00,67.0,62.0,29.75,NW,305,2.0,4.0,83,0.00,,,0.00,,2013-06-15 11:22:00,
2013-06-15 06:33:00,66.0,62.0,29.76,North,360,2.0,8.0,86,0.00,,,0.00,,2013-06-15 11:33:00,
2013-06-15 06:43:00,67.0,63.0,29.75,NNW,348,2.0,6.0,87,0.00,,,0.00,,2013-06-15 11:43:00,
2013-06-15 06:53:00,67.0,63.0,29.75,NNW,348,2.0,6.0,87,0.00,,,0.00,,2013-06-15 11:53:00,
2013-06-15 07:01:00,68.0,63.0,29.74,NE,55,6.0,15.0,85,0.00,,,0.00,,2013-06-15 12:01:00,
2013-06-15 07:11:00,68.0,63.0,29.74,NNE,32,3.0,11.0,84,0.00,,,0.00,,2013-06-15 12:11:00,
2013-06-15 07:22:00,68.0,63.0,29.74,NNE,32,3.0,11.0,84,0.00,,,0.00,,2013-06-15 12:22:00,
2013-06-15 07:33:00,68.0,63.0,29.75,NNE,24,7.0,12.0,84,0.00,,,0.00,,2013-06-15 12:33:00,
2013-06-15 07:43:00,67.0,61.0,29.74,NNE,26,6.0,15.0,80,0.00,,,0.00,,2013-06-15 12:43:00,
2013-06-15 07:52:00,67.0,61.0,29.74,NNE,26,6.0,15.0,80,0.00,,,0.00,,2013-06-15 12:52:00,
2013-06-15 08:02:00,66.0,60.0,29.72,NE,40,7.0,14.0,82,0.00,,,0.00,,2013-06-15 13:02:00,
2013-06-15 08:11:00,66.0,60.0,29.72,NE,40,7.0,14.0,82,0.00,,,0.00,,2013-06-15 13:11:00,
2013-06-15 08:22:00,68.0,62.0,29.72,NE,53,5.0,12.0,80,0.00,,,0.00,,2013-06-15 13:22:00,
2013-06-15 08:32:00,69.0,61.0,29.74,ENE,66,2.0,10.0,77,0.00,,,0.00,,2013-06-15 13:32:00,
2013-06-15 08:43:00,69.0,61.0,29.74,ENE,66,2.0,10.0,77,0.00,,,0.00,,2013-06-15 13:43:00,
2013-06-15 08:53:00,70.0,61.0,29.75,NNE,31,2.0,10.0,73,0.00,,,0.00,,2013-06-15 13:53:00,
2013-06-15 09:01:00,72.0,61.0,29.75,NNE,30,2.0,7.0,69,0.00,,,0.00,,2013-06-15 14:01:00,
2013-06-15 09:12:00,72.0,61.0,29.75,NNE,30,2.0,7.0,69,0.00,,,0.00,,2013-06-15 14:12:00,
2013-06-15 09:22:00,72.0,59.0,29.74,NE,49,4.0,10.0,63,0.00,,,0.00,,2013-06-15 14:22:00,
2013-06-15 09:34:00,73.0,58.0,29.74,ENE,73,5.0,12.0,59,0.00,,,0.00,,2013-06-15 14:34:00,
2013-06-15 09:43:00,75.0,58.0,29.74,NE,55,4.0,11.0,56,0.00,,,0.00,,2013-06-15 14:43:00,
2013-06-15 09:54:00,75.0,58.0,29.74,NE,55,4.0,11.0,56,0.00,,,0.00,,2013-06-15 14:54:00,
2013-06-15 10:01:00,75.0,58.0,29.75,NE,49,4.0,10.0,56,0.00,,,0.00,,2013-06-15 15:01:00,
2013-06-15 10:11:00,75.0,58.0,29.75,NE,49,4.0,10.0,56,0.00,,,0.00,,2013-06-15 15:11:00,
2013-06-15 10:22:00,76.0,59.0,29.76,ENE,60,2.0,10.0,55,0.00,,,0.00,,2013-06-15 15:22:00,
2013-06-15 10:33:00,77.0,61.0,29.76,SSE,161,3.0,10.0,57,0.00,,,0.00,,2013-06-15 15:33:00,
2013-06-15 10:43:00,77.0,61.0,29.76,SSE,161,3.0,10.0,57,0.00,,,0.00,,2013-06-15 15:43:00,
2013-06-15 10:53:00,77.0,61.0,29.75,SE,136,2.0,8.0,58,0.00,,,0.00,,2013-06-15 15:53:00,
2013-06-15 11:01:00,77.0,62.0,29.75,SSE,161,1.0,11.0,59,0.00,,,0.00,,2013-06-15 16:01:00,
2013-06-15 11:11:00,77.0,62.0,29.75,SSE,161,1.0,11.0,59,0.00,,,0.00,,2013-06-15 16:11:00,
2013-06-15 11:22:00,78.0,62.0,29.75,SE,136,3.0,7.0,58,0.00,,,0.00,,2013-06-15 16:22:00,
2013-06-15 11:33:00,79.0,63.0,29.75,SSE,149,5.0,13.0,58,0.00,,,0.00,,2013-06-15 16:33:00,
2013-06-15 11:43:00,79.0,63.0,29.75,SSE,149,5.0,13.0,58,0.00,,,0.00,,2013-06-15 16:43:00,
2013-06-15 11:53:00,79.0,63.0,29.74,SE,126,6.0,13.0,59,0.00,,,0.00,,2013-06-15 16:53:00,
2013-06-15 12:02:00,79.0,63.0,29.75,SSE,151,5.0,13.0,59,0.00,,,0.00,,2013-06-15 17:02:00,
2013-06-15 12:12:00,79.0,63.0,29.75,SSE,151,5.0,13.0,59,0.00,,,0.00,,2013-06-15 17:12:00,
2013-06-15 12:21:00,79.0,63.0,29.76,SE,133,3.0,10.0,59,0.00,,,0.00,,2013-06-15 17:21:00,
2013-06-15 12:32:00,80.0,64.0,29.75,SE,124,3.0,12.0,58,0.00,,,0.00,,2013-06-15 17:32:00,
2013-06-15 12:43:00,80.0,64.0,29.75,SE,124,3.0,12.0,58,0.00,,,0.00,,2013-06-15 17:43:00,
2013-06-15 12:52:00,81.0,62.0,29.75,ENE,73,3.0,8.0,53,0.00,,,0.00,,2013-06-15 17:52:00,
2013-06-15 13:01:00,82.0,63.0,29.75,East,82,3.0,10.0,52,0.00,,,0.00,,2013-06-15 18:01:00,
2013-06-15 13:12:00,82.0,63.0,29.75,East,82,3.0,10.0,52,0.00,,,0.00,,2013-06-15 18:12:00,
2013-06-15 13:22:00,82.0,61.0,29.75,SSE,159,1.0,10.0,50,0.00,,,0.00,,2013-06-15 18:22:00,
2013-06-15 13:32:00,82.0,60.0,29.75,SE,130,4.0,9.0,47,0.00,,,0.00,,2013-06-15 18:32:00,
2013-06-15 13:43:00,82.0,60.0,29.75,SE,130,4.0,9.0,47,0.00,,,0.00,,2013-06-15 18:43:00,
2013-06-15 13:53:00,82.0,59.0,29.75,ESE,122,3.0,8.0,46,0.00,,,0.00,,2013-06-15 18:53:00,
2013-06-15 14:01:00,83.0,60.0,29.75,ESE,119,2.0,8.0,46,0.00,,,0.00,,2013-06-15 19:01:00,
2013-06-15 14:11:00,83.0,60.0,29.75,ESE,119,2.0,8.0,46,0.00,,,0.00,,2013-06-15 19:11:00,
2013-06-15 14:22:00,83.0,61.0,29.74,NE,34,4.0,9.0,47,0.00,,,0.00,,2013-06-15 19:22:00,
2013-06-15 14:33:00,83.0,61.0,29.74,NNE,14,2.0,12.0,48,0.00,,,0.00,,2013-06-15 19:33:00,
2013-06-15 14:43:00,83.0,61.0,29.74,NNE,14,2.0,12.0,48,0.00,,,0.00,,2013-06-15 19:43:00,
2013-06-15 14:53:00,83.0,61.0,29.74,NNE,32,3.0,10.0,47,0.00,,,0.00,,2013-06-15 19:53:00,
2013-06-15 15:02:00,83.0,61.0,29.74,NE,41,3.0,10.0,47,0.00,,,0.00,,2013-06-15 20:02:00,
2013-06-15 15:11:00,83.0,61.0,29.74,NE,41,3.0,10.0,47,0.00,,,0.00,,2013-06-15 20:11:00,
2013-06-15 15:22:00,84.0,62.0,29.73,NNE,17,4.0,8.0,47,0.00,,,0.00,,2013-06-15 20:22:00,
2013-06-15 15:33:00,84.0,61.0,29.73,ENE,77,2.0,7.0,46,0.00,,,0.00,,2013-06-15 20:33:00,
2013-06-15 15:43:00,84.0,61.0,29.73,ENE,77,2.0,7.0,46,0.00,,,0.00,,2013-06-15 20:43:00,
2013-06-15 15:53:00,84.0,61.0,29.72,NNE,32,6.0,11.0,46,0.00,,,0.00,,2013-06-15 20:53:00,
2013-06-15 16:01:00,83.0,64.0,29.72,NNE,32,4.0,12.0,52,0.00,,,0.00,,2013-06-15 21:01:00,
2013-06-15 16:11:00,83.0,64.0,29.72,NNE,32,4.0,12.0,52,0.00,,,0.00,,2013-06-15 21:11:00,
2013-06-15 16:22:00,82.0,63.0,29.72,NE,52,6.0,15.0,53,0.00,,,0.00,,2013-06-15 21:22:00,
2013-06-15 16:33:00,83.0,63.0,29.72,ENE,60,4.0,13.0,51,0.00,,,0.00,,2013-06-15 21:33:00,
2013-06-15 16:42:00,83.0,63.0,29.72,ENE,60,4.0,13.0,51,0.00,,,0.00,,2013-06-15 21:42:00,
2013-06-15 16:53:00,83.0,63.0,29.72,North,355,5.0,13.0,51,0.00,,,0.00,,2013-06-15 21:53:00,
2013-06-15 17:01:00,83.0,62.0,29.72,East,86,2.0,9.0,50,0.00,,,0.00,,2013-06-15 22:01:00,
2013-06-15 17:11:00,83.0,62.0,29.72,East,86,2.0,9.0,50,0.00,,,0.00,,2013-06-15 22:11:00,
2013-06-15 17:22:00,83.0,64.0,29.72,North,350,4.0,9.0,53,0.00,,,0.00,,2013-06-15 22:22:00,
2013-06-15 17:32:00,83.0,63.0,29.73,East,87,5.0,9.0,51,0.00,,,0.00,,2013-06-15 22:32:00,
2013-06-15 17:42:00,83.0,63.0,29.73,East,87,5.0,9.0,51,0.00,,,0.00,,2013-06-15 22:42:00,
2013-06-15 17:53:00,83.0,63.0,29.72,NE,46,3.0,6.0,51,0.00,,,0.00,,2013-06-15 22:53:00,
2013-06-15 18:02:00,83.0,63.0,29.72,ESE,106,2.0,10.0,51,0.00,,,0.00,,2013-06-15 23:02:00,
2013-06-15 18:11:00,83.0,63.0,29.72,ESE,106,2.0,10.0,51,0.00,,,0.00,,2013-06-15 23:11:00,
2013-06-15 18:22:00,83.0,62.0,29.71,NE,37,3.0,10.0,50,0.00,,,0.00,,2013-06-15 23:22:00,
2013-06-15 18:33:00,83.0,64.0,29.71,East,84,2.0,7.0,52,0.00,,,0.00,,2013-06-15 23:33:00,
2013-06-15 18:42:00,83.0,64.0,29.71,East,84,2.0,7.0,52,0.00,,,0.00,,2013-06-15 23:42:00,
2013-06-15 18:53:00,82.0,62.0,29.72,NE,34,5.0,10.0,51,0.00,,,0.00,,2013-06-15 23:53:00,
2013-06-15 19:01:00,83.0,63.0,29.72,ENE,57,3.0,8.0,51,0.00,,,0.00,,2013-06-16 00:01:00,
2013-06-15 19:11:00,83.0,63.0,29.72,ENE,57,3.0,8.0,51,0.00,,,0.00,,2013-06-16 00:11:00,
2013-06-15 19:22:00,82.0,63.0,29.72,NE,34,5.0,9.0,52,0.00,,,0.00,,2013-06-16 00:22:00,
2013-06-15 19:33:00,81.0,62.0,29.72,ENE,72,3.0,8.0,53,0.00,,,0.00,,2013-06-16 00:33:00,
2013-06-15 19:43:00,81.0,62.0,29.72,ENE,72,3.0,8.0,53,0.00,,,0.00,,2013-06-16 00:43:00,
2013-06-15 19:52:00,80.0,62.0,29.73,East,85,2.0,8.0,54,0.00,,,0.00,,2013-06-16 00:52:00,
2013-06-15 20:01:00,80.0,61.0,29.74,NNE,19,4.0,8.0,53,0.00,,,0.00,,2013-06-16 01:01:00,
2013-06-15 20:11:00,80.0,61.0,29.74,NNE,19,4.0,8.0,53,0.00,,,0.00,,2013-06-16 01:11:00,
2013-06-15 20:22:00,80.0,62.0,29.74,NE,51,2.0,8.0,55,0.00,,,0.00,,2013-06-16 01:22:00,
2013-06-15 20:33:00,79.0,62.0,29.75,ENE,77,2.0,10.0,57,0.00,,,0.00,,2013-06-16 01:33:00,
2013-06-15 20:42:00,79.0,62.0,29.75,ENE,77,2.0,10.0,57,0.00,,,0.00,,2013-06-16 01:42:00,
2013-06-15 20:53:00,78.0,62.0,29.75,NE,44,2.0,7.0,57,0.00,,,0.00,,2013-06-16 01:53:00,
2013-06-15 21:01:00,78.0,62.0,29.76,ENE,62,3.0,8.0,59,0.00,,,0.00,,2013-06-16 02:01:00,
2013-06-15 21:12:00,78.0,62.0,29.76,ENE,62,3.0,8.0,59,0.00,,,0.00,,2013-06-16 02:12:00,
2013-06-15 21:22:00,77.0,62.0,29.76,East,79,2.0,8.0,60,0.00,,,0.00,,2013-06-16 02:22:00,
2013-06-15 21:33:00,76.0,62.0,29.76,ENE,68,2.0,9.0,63,0.00,,,0.00,,2013-06-16 02:33:00,
2013-06-15 21:43:00,76.0,62.0,29.76,ENE,68,2.0,9.0,63,0.00,,,0.00,,2013-06-16 02:43:00,
2013-06-15 21:53:00,75.0,62.0,29.77,ENE,58,3.0,9.0,65,0.00,,,0.00,,2013-06-16 02:53:00,
2013-06-15 22:02:00,75.0,63.0,29.78,NE,51,2.0,5.0,67,0.00,,,0.00,,2013-06-16 03:02:00,
2013-06-15 22:11:00,75.0,63.0,29.78,NE,51,2.0,5.0,67,0.00,,,0.00,,2013-06-16 03:11:00,
2013-06-15 22:22:00,74.0,63.0,29.80,ENE,74,1.0,5.0,68,0.00,,,0.00,,2013-06-16 03:22:00,
2013-06-15 22:33:00,74.0,63.0,29.81,NE,56,2.0,5.0,69,0.00,,,0.00,,2013-06-16 03:33:00,
2013-06-15 22:43:00,74.0,63.0,29.81,NE,56,2.0,5.0,69,0.00,,,0.00,,2013-06-16 03:43:00,
2013-06-15 22:53:00,73.0,63.0,29.82,ENE,68,0.0,4.0,70,0.00,,,0.00,,2013-06-16 03:53:00,
2013-06-15 23:01:00,73.0,63.0,29.81,ENE,63,2.0,7.0,71,0.00,,,0.00,,2013-06-16 04:01:00,
2013-06-15 23:12:00,73.0,63.0,29.81,ENE,63,2.0,7.0,71,0.00,,,0.00,,2013-06-16 04:12:00,
2013-06-15 23:23:00,72.0,62.0,29.82,ENE,74,1.0,7.0,72,0.00,,,0.00,,2013-06-16 04:23:00,
2013-06-15 23:33:00,72.0,62.0,29.83,ENE,69,2.0,5.0,72,0.00,,,0.00,,2013-06-16 04:33:00,
2013-06-15 23:42:00,72.0,62.0,29.83,ENE,69,2.0,5.0,72,0.00,,,0.00,,2013-06-16 04:42:00,
2013-06-15 23:53:00,72.0,63.0,29.80,ENE,58,2.0,5.0,73,0.00,,,0.00,,2013-06-16 04:53:00,